sensor_id;sensor_type;location;lat;lon;timestamp;P1;durP1;ratioP1;P2;durP2;ratioP2
45848;SDS011;31567;54.600;9.842;2023-07-31T00:03:11;3.97;;;1.40;;
45848;SDS011;31567;54.600;9.842;2023-07-31T00:06:50;6.10;;;1.50;;
45848;SDS011;31567;54.600;9.842;2023-07-31T00:10:30;4.00;;;1.73;;
45848;SDS011;31567;54.600;9.842;2023-07-31T00:14:09;6.18;;;1.13;;
45848;SDS011;31567;54.600;9.842;2023-07-31T00:17:49;8.75;;;1.52;;
45848;SDS011;31567;54.600;9.842;2023-07-31T00:21:28;5.13;;;1.50;;
45848;SDS011;31567;54.600;9.842;2023-07-31T00:25:08;4.85;;;1.63;;
45848;SDS011;31567;54.600;9.842;2023-07-31T00:28:47;4.18;;;1.52;;
45848;SDS011;31567;54.600;9.842;2023-07-31T00:32:27;8.80;;;2.45;;
45848;SDS011;31567;54.600;9.842;2023-07-31T00:36:06;8.05;;;1.80;;
45848;SDS011;31567;54.600;9.842;2023-07-31T00:39:46;3.65;;;1.98;;
45848;SDS011;31567;54.600;9.842;2023-07-31T00:43:26;8.88;;;1.90;;
45848;SDS011;31567;54.600;9.842;2023-07-31T00:47:05;5.78;;;1.58;;
45848;SDS011;31567;54.600;9.842;2023-07-31T00:50:45;5.90;;;2.10;;
45848;SDS011;31567;54.600;9.842;2023-07-31T00:54:24;5.72;;;1.65;;
45848;SDS011;31567;54.600;9.842;2023-07-31T00:58:04;6.55;;;1.50;;
45848;SDS011;31567;54.600;9.842;2023-07-31T01:01:44;3.92;;;1.02;;
45848;SDS011;31567;54.600;9.842;2023-07-31T01:05:27;6.43;;;1.27;;
45848;SDS011;31567;54.600;9.842;2023-07-31T01:12:57;6.75;;;1.92;;
45848;SDS011;31567;54.600;9.842;2023-07-31T01:16:37;3.85;;;1.20;;
45848;SDS011;31567;54.600;9.842;2023-07-31T01:20:17;5.85;;;1.70;;
45848;SDS011;31567;54.600;9.842;2023-07-31T01:28:03;3.25;;;1.20;;
45848;SDS011;31567;54.600;9.842;2023-07-31T01:31:45;4.88;;;1.63;;
45848;SDS011;31567;54.600;9.842;2023-07-31T01:35:28;2.28;;;1.13;;
45848;SDS011;31567;54.600;9.842;2023-07-31T01:39:07;6.00;;;1.23;;
45848;SDS011;31567;54.600;9.842;2023-07-31T01:42:47;5.35;;;1.40;;
45848;SDS011;31567;54.600;9.842;2023-07-31T01:46:26;4.78;;;1.50;;
45848;SDS011;31567;54.600;9.842;2023-07-31T01:50:06;3.55;;;1.60;;
45848;SDS011;31567;54.600;9.842;2023-07-31T01:53:45;4.53;;;1.58;;
45848;SDS011;31567;54.600;9.842;2023-07-31T01:57:25;5.68;;;1.88;;
45848;SDS011;31567;54.600;9.842;2023-07-31T02:01:05;7.00;;;1.60;;
45848;SDS011;31567;54.600;9.842;2023-07-31T02:04:44;9.73;;;1.52;;
45848;SDS011;31567;54.600;9.842;2023-07-31T02:08:24;6.25;;;1.73;;
45848;SDS011;31567;54.600;9.842;2023-07-31T02:12:04;5.57;;;1.40;;
45848;SDS011;31567;54.600;9.842;2023-07-31T02:15:44;7.93;;;1.63;;
45848;SDS011;31567;54.600;9.842;2023-07-31T02:19:24;7.35;;;1.83;;
45848;SDS011;31567;54.600;9.842;2023-07-31T02:23:04;5.00;;;1.60;;
45848;SDS011;31567;54.600;9.842;2023-07-31T02:26:43;4.00;;;1.77;;
45848;SDS011;31567;54.600;9.842;2023-07-31T02:30:23;4.95;;;1.80;;
45848;SDS011;31567;54.600;9.842;2023-07-31T02:34:02;4.85;;;1.98;;
45848;SDS011;31567;54.600;9.842;2023-07-31T02:37:42;2.83;;;1.58;;
45848;SDS011;31567;54.600;9.842;2023-07-31T02:41:22;2.72;;;1.60;;
45848;SDS011;31567;54.600;9.842;2023-07-31T02:45:01;4.07;;;1.50;;
45848;SDS011;31567;54.600;9.842;2023-07-31T02:48:41;3.97;;;1.50;;
45848;SDS011;31567;54.600;9.842;2023-07-31T02:52:20;6.22;;;2.38;;
45848;SDS011;31567;54.600;9.842;2023-07-31T02:56:00;4.05;;;1.67;;
45848;SDS011;31567;54.600;9.842;2023-07-31T02:59:39;5.93;;;1.55;;
45848;SDS011;31567;54.600;9.842;2023-07-31T03:03:19;6.78;;;1.67;;
45848;SDS011;31567;54.600;9.842;2023-07-31T03:06:59;6.80;;;1.80;;
45848;SDS011;31567;54.600;9.842;2023-07-31T03:10:38;4.13;;;1.45;;
45848;SDS011;31567;54.600;9.842;2023-07-31T03:14:18;5.43;;;2.55;;
45848;SDS011;31567;54.600;9.842;2023-07-31T03:17:57;4.95;;;2.28;;
45848;SDS011;31567;54.600;9.842;2023-07-31T03:21:37;5.95;;;2.50;;
45848;SDS011;31567;54.600;9.842;2023-07-31T03:25:16;5.00;;;2.58;;
45848;SDS011;31567;54.600;9.842;2023-07-31T03:28:56;7.28;;;2.88;;
45848;SDS011;31567;54.600;9.842;2023-07-31T03:32:35;5.80;;;2.88;;
45848;SDS011;31567;54.600;9.842;2023-07-31T03:36:15;6.78;;;3.30;;
45848;SDS011;31567;54.600;9.842;2023-07-31T03:39:54;9.75;;;4.15;;
45848;SDS011;31567;54.600;9.842;2023-07-31T03:43:34;8.70;;;4.40;;
45848;SDS011;31567;54.600;9.842;2023-07-31T03:47:13;8.77;;;4.45;;
45848;SDS011;31567;54.600;9.842;2023-07-31T03:50:53;7.30;;;4.32;;
45848;SDS011;31567;54.600;9.842;2023-07-31T03:54:33;12.48;;;4.78;;
45848;SDS011;31567;54.600;9.842;2023-07-31T03:58:12;10.98;;;5.10;;
45848;SDS011;31567;54.600;9.842;2023-07-31T04:01:52;14.00;;;5.38;;
45848;SDS011;31567;54.600;9.842;2023-07-31T04:05:31;10.85;;;5.55;;
45848;SDS011;31567;54.600;9.842;2023-07-31T04:09:11;13.77;;;5.60;;
45848;SDS011;31567;54.600;9.842;2023-07-31T04:12:51;9.73;;;4.95;;
45848;SDS011;31567;54.600;9.842;2023-07-31T04:16:30;8.50;;;5.22;;
45848;SDS011;31567;54.600;9.842;2023-07-31T04:20:10;11.25;;;6.00;;
45848;SDS011;31567;54.600;9.842;2023-07-31T04:23:50;12.32;;;5.95;;
45848;SDS011;31567;54.600;9.842;2023-07-31T04:27:29;11.57;;;6.50;;
45848;SDS011;31567;54.600;9.842;2023-07-31T04:31:09;9.32;;;5.65;;
45848;SDS011;31567;54.600;9.842;2023-07-31T04:34:48;8.73;;;4.97;;
45848;SDS011;31567;54.600;9.842;2023-07-31T04:38:28;9.70;;;4.55;;
45848;SDS011;31567;54.600;9.842;2023-07-31T04:42:07;8.75;;;4.90;;
45848;SDS011;31567;54.600;9.842;2023-07-31T04:45:47;7.53;;;4.63;;
45848;SDS011;31567;54.600;9.842;2023-07-31T04:49:27;7.60;;;4.68;;
45848;SDS011;31567;54.600;9.842;2023-07-31T04:53:07;8.95;;;4.43;;
45848;SDS011;31567;54.600;9.842;2023-07-31T04:56:46;8.43;;;4.43;;
45848;SDS011;31567;54.600;9.842;2023-07-31T05:00:26;7.90;;;4.32;;
45848;SDS011;31567;54.600;9.842;2023-07-31T05:04:06;6.80;;;3.33;;
45848;SDS011;31567;54.600;9.842;2023-07-31T05:07:45;7.25;;;3.70;;
45848;SDS011;31567;54.600;9.842;2023-07-31T05:11:25;3.78;;;2.80;;
45848;SDS011;31567;54.600;9.842;2023-07-31T05:15:04;3.00;;;2.67;;
45848;SDS011;31567;54.600;9.842;2023-07-31T05:18:44;4.07;;;2.90;;
45848;SDS011;31567;54.600;9.842;2023-07-31T05:22:24;5.88;;;3.42;;
45848;SDS011;31567;54.600;9.842;2023-07-31T05:26:04;5.78;;;3.65;;
45848;SDS011;31567;54.600;9.842;2023-07-31T05:29:44;8.20;;;3.97;;
45848;SDS011;31567;54.600;9.842;2023-07-31T05:33:24;7.15;;;4.18;;
45848;SDS011;31567;54.600;9.842;2023-07-31T05:37:04;5.18;;;4.50;;
45848;SDS011;31567;54.600;9.842;2023-07-31T05:40:44;5.63;;;4.68;;
45848;SDS011;31567;54.600;9.842;2023-07-31T05:44:24;6.80;;;4.95;;
45848;SDS011;31567;54.600;9.842;2023-07-31T05:48:04;6.00;;;5.40;;
45848;SDS011;31567;54.600;9.842;2023-07-31T05:51:43;7.57;;;5.28;;
45848;SDS011;31567;54.600;9.842;2023-07-31T05:55:23;6.55;;;5.80;;
45848;SDS011;31567;54.600;9.842;2023-07-31T05:59:05;10.27;;;5.65;;
45848;SDS011;31567;54.600;9.842;2023-07-31T06:02:45;8.88;;;6.40;;
45848;SDS011;31567;54.600;9.842;2023-07-31T06:06:24;7.95;;;6.55;;
45848;SDS011;31567;54.600;9.842;2023-07-31T06:10:04;8.80;;;6.60;;
45848;SDS011;31567;54.600;9.842;2023-07-31T06:13:44;8.05;;;6.25;;
45848;SDS011;31567;54.600;9.842;2023-07-31T06:17:25;9.75;;;6.68;;
45848;SDS011;31567;54.600;9.842;2023-07-31T06:21:05;11.73;;;6.07;;
45848;SDS011;31567;54.600;9.842;2023-07-31T06:24:45;6.80;;;6.07;;
45848;SDS011;31567;54.600;9.842;2023-07-31T06:28:28;12.13;;;6.10;;
45848;SDS011;31567;54.600;9.842;2023-07-31T06:32:09;7.38;;;5.10;;
45848;SDS011;31567;54.600;9.842;2023-07-31T06:35:49;8.13;;;5.22;;
45848;SDS011;31567;54.600;9.842;2023-07-31T06:39:28;11.18;;;5.35;;
45848;SDS011;31567;54.600;9.842;2023-07-31T06:43:08;5.45;;;4.93;;
45848;SDS011;31567;54.600;9.842;2023-07-31T06:46:47;8.85;;;5.22;;
45848;SDS011;31567;54.600;9.842;2023-07-31T06:50:28;7.03;;;4.57;;
45848;SDS011;31567;54.600;9.842;2023-07-31T06:54:08;5.72;;;4.35;;
45848;SDS011;31567;54.600;9.842;2023-07-31T06:57:48;8.27;;;6.28;;
45848;SDS011;31567;54.600;9.842;2023-07-31T07:01:28;7.20;;;5.28;;
45848;SDS011;31567;54.600;9.842;2023-07-31T07:05:08;5.82;;;5.13;;
45848;SDS011;31567;54.600;9.842;2023-07-31T07:08:48;7.22;;;4.82;;
45848;SDS011;31567;54.600;9.842;2023-07-31T07:12:29;6.72;;;4.30;;
45848;SDS011;31567;54.600;9.842;2023-07-31T07:16:09;4.72;;;4.32;;
45848;SDS011;31567;54.600;9.842;2023-07-31T07:19:49;3.80;;;3.13;;
45848;SDS011;31567;54.600;9.842;2023-07-31T07:23:29;4.35;;;2.95;;
45848;SDS011;31567;54.600;9.842;2023-07-31T07:27:08;4.00;;;2.90;;
45848;SDS011;31567;54.600;9.842;2023-07-31T07:30:51;4.22;;;2.80;;
45848;SDS011;31567;54.600;9.842;2023-07-31T07:34:34;3.00;;;2.40;;
45848;SDS011;31567;54.600;9.842;2023-07-31T07:38:14;2.75;;;2.42;;
45848;SDS011;31567;54.600;9.842;2023-07-31T07:41:54;2.17;;;2.08;;
45848;SDS011;31567;54.600;9.842;2023-07-31T07:45:34;5.18;;;2.60;;
45848;SDS011;31567;54.600;9.842;2023-07-31T07:49:13;4.05;;;2.00;;
45848;SDS011;31567;54.600;9.842;2023-07-31T07:52:53;2.60;;;2.00;;
45848;SDS011;31567;54.600;9.842;2023-07-31T07:56:32;3.80;;;1.35;;
45848;SDS011;31567;54.600;9.842;2023-07-31T08:00:12;3.55;;;1.20;;
45848;SDS011;31567;54.600;9.842;2023-07-31T08:03:52;2.65;;;1.40;;
45848;SDS011;31567;54.600;9.842;2023-07-31T08:07:32;2.30;;;1.27;;
45848;SDS011;31567;54.600;9.842;2023-07-31T08:11:11;3.03;;;1.48;;
45848;SDS011;31567;54.600;9.842;2023-07-31T08:14:51;3.47;;;1.70;;
45848;SDS011;31567;54.600;9.842;2023-07-31T08:18:31;3.03;;;1.45;;
45848;SDS011;31567;54.600;9.842;2023-07-31T08:22:11;3.60;;;1.15;;
45848;SDS011;31567;54.600;9.842;2023-07-31T08:25:51;1.85;;;1.20;;
45848;SDS011;31567;54.600;9.842;2023-07-31T08:29:30;3.42;;;1.38;;
45848;SDS011;31567;54.600;9.842;2023-07-31T08:33:10;3.08;;;0.88;;
45848;SDS011;31567;54.600;9.842;2023-07-31T08:36:49;5.20;;;1.30;;
45848;SDS011;31567;54.600;9.842;2023-07-31T08:40:29;1.77;;;1.00;;
45848;SDS011;31567;54.600;9.842;2023-07-31T08:44:09;4.90;;;1.05;;
45848;SDS011;31567;54.600;9.842;2023-07-31T08:47:50;3.33;;;0.93;;
45848;SDS011;31567;54.600;9.842;2023-07-31T08:51:31;0.68;;;0.50;;
45848;SDS011;31567;54.600;9.842;2023-07-31T08:55:15;1.35;;;0.85;;
45848;SDS011;31567;54.600;9.842;2023-07-31T08:58:54;4.03;;;0.70;;
45848;SDS011;31567;54.600;9.842;2023-07-31T09:02:38;2.75;;;1.17;;
45848;SDS011;31567;54.600;9.842;2023-07-31T09:06:24;4.25;;;1.20;;
45848;SDS011;31567;54.600;9.842;2023-07-31T09:10:06;1.10;;;1.02;;
45848;SDS011;31567;54.600;9.842;2023-07-31T09:13:46;2.08;;;1.00;;
45848;SDS011;31567;54.600;9.842;2023-07-31T09:17:29;2.58;;;1.17;;
45848;SDS011;31567;54.600;9.842;2023-07-31T09:21:10;2.40;;;1.42;;
45848;SDS011;31567;54.600;9.842;2023-07-31T09:24:49;3.92;;;1.50;;
45848;SDS011;31567;54.600;9.842;2023-07-31T09:28:30;2.05;;;1.55;;
45848;SDS011;31567;54.600;9.842;2023-07-31T09:32:17;3.53;;;1.50;;
45848;SDS011;31567;54.600;9.842;2023-07-31T09:35:58;1.90;;;1.27;;
45848;SDS011;31567;54.600;9.842;2023-07-31T09:39:48;3.00;;;1.40;;
45848;SDS011;31567;54.600;9.842;2023-07-31T09:43:33;2.63;;;1.00;;
45848;SDS011;31567;54.600;9.842;2023-07-31T09:47:20;2.72;;;1.17;;
45848;SDS011;31567;54.600;9.842;2023-07-31T09:51:04;2.30;;;1.40;;
45848;SDS011;31567;54.600;9.842;2023-07-31T09:54:44;3.33;;;1.60;;
45848;SDS011;31567;54.600;9.842;2023-07-31T09:58:23;1.30;;;1.05;;
45848;SDS011;31567;54.600;9.842;2023-07-31T10:02:05;1.23;;;1.10;;
45848;SDS011;31567;54.600;9.842;2023-07-31T10:05:52;2.45;;;1.30;;
45848;SDS011;31567;54.600;9.842;2023-07-31T10:09:34;3.00;;;1.50;;
45848;SDS011;31567;54.600;9.842;2023-07-31T10:13:14;1.52;;;1.40;;
45848;SDS011;31567;54.600;9.842;2023-07-31T10:16:56;1.60;;;1.17;;
45848;SDS011;31567;54.600;9.842;2023-07-31T10:20:37;1.25;;;1.20;;
45848;SDS011;31567;54.600;9.842;2023-07-31T10:24:16;1.80;;;1.20;;
45848;SDS011;31567;54.600;9.842;2023-07-31T10:27:56;2.42;;;1.40;;
45848;SDS011;31567;54.600;9.842;2023-07-31T10:31:36;3.75;;;1.27;;
45848;SDS011;31567;54.600;9.842;2023-07-31T10:35:17;3.88;;;1.33;;
45848;SDS011;31567;54.600;9.842;2023-07-31T10:38:56;3.40;;;1.50;;
45848;SDS011;31567;54.600;9.842;2023-07-31T10:42:37;4.57;;;1.50;;
45848;SDS011;31567;54.600;9.842;2023-07-31T10:46:20;2.55;;;1.30;;
45848;SDS011;31567;54.600;9.842;2023-07-31T10:54:13;1.70;;;1.30;;
45848;SDS011;31567;54.600;9.842;2023-07-31T10:57:54;1.05;;;1.05;;
45848;SDS011;31567;54.600;9.842;2023-07-31T11:01:54;1.45;;;1.17;;
45848;SDS011;31567;54.600;9.842;2023-07-31T11:09:41;4.22;;;1.10;;
45848;SDS011;31567;54.600;9.842;2023-07-31T11:13:21;2.20;;;1.60;;
45848;SDS011;31567;54.600;9.842;2023-07-31T11:17:05;2.28;;;1.40;;
45848;SDS011;31567;54.600;9.842;2023-07-31T11:20:46;3.67;;;1.77;;
45848;SDS011;31567;54.600;9.842;2023-07-31T11:24:25;2.05;;;1.17;;
45848;SDS011;31567;54.600;9.842;2023-07-31T11:28:06;1.55;;;1.25;;
45848;SDS011;31567;54.600;9.842;2023-07-31T11:31:47;3.97;;;1.60;;
45848;SDS011;31567;54.600;9.842;2023-07-31T11:35:28;2.92;;;1.20;;
45848;SDS011;31567;54.600;9.842;2023-07-31T11:39:09;3.13;;;1.58;;
45848;SDS011;31567;54.600;9.842;2023-07-31T11:42:49;2.58;;;1.52;;
45848;SDS011;31567;54.600;9.842;2023-07-31T11:46:32;3.30;;;1.42;;
45848;SDS011;31567;54.600;9.842;2023-07-31T11:50:12;2.03;;;1.33;;
45848;SDS011;31567;54.600;9.842;2023-07-31T11:53:52;3.60;;;1.88;;
45848;SDS011;31567;54.600;9.842;2023-07-31T11:57:35;4.30;;;1.58;;
45848;SDS011;31567;54.600;9.842;2023-07-31T12:01:18;2.00;;;1.70;;
45848;SDS011;31567;54.600;9.842;2023-07-31T12:04:59;1.48;;;1.38;;
45848;SDS011;31567;54.600;9.842;2023-07-31T12:08:39;1.50;;;1.38;;
45848;SDS011;31567;54.600;9.842;2023-07-31T12:12:22;2.38;;;1.60;;
45848;SDS011;31567;54.600;9.842;2023-07-31T12:16:03;1.60;;;1.50;;
45848;SDS011;31567;54.600;9.842;2023-07-31T12:19:43;2.10;;;1.95;;
45848;SDS011;31567;54.600;9.842;2023-07-31T12:23:28;1.95;;;1.85;;
45848;SDS011;31567;54.600;9.842;2023-07-31T12:27:10;1.73;;;1.63;;
45848;SDS011;31567;54.600;9.842;2023-07-31T12:30:50;2.40;;;2.20;;
45848;SDS011;31567;54.600;9.842;2023-07-31T12:34:30;3.05;;;2.20;;
45848;SDS011;31567;54.600;9.842;2023-07-31T12:38:10;1.70;;;1.60;;
45848;SDS011;31567;54.600;9.842;2023-07-31T12:41:50;2.72;;;1.77;;
45848;SDS011;31567;54.600;9.842;2023-07-31T12:45:30;2.50;;;2.00;;
45848;SDS011;31567;54.600;9.842;2023-07-31T12:49:10;3.85;;;2.30;;
45848;SDS011;31567;54.600;9.842;2023-07-31T12:52:49;2.55;;;2.35;;
45848;SDS011;31567;54.600;9.842;2023-07-31T12:56:29;2.60;;;2.00;;
45848;SDS011;31567;54.600;9.842;2023-07-31T13:00:09;1.55;;;1.45;;
45848;SDS011;31567;54.600;9.842;2023-07-31T13:03:49;2.97;;;1.90;;
45848;SDS011;31567;54.600;9.842;2023-07-31T13:07:29;3.63;;;2.03;;
45848;SDS011;31567;54.600;9.842;2023-07-31T13:11:08;2.95;;;2.00;;
45848;SDS011;31567;54.600;9.842;2023-07-31T13:14:48;2.10;;;1.70;;
45848;SDS011;31567;54.600;9.842;2023-07-31T13:18:27;2.03;;;1.90;;
45848;SDS011;31567;54.600;9.842;2023-07-31T13:22:07;1.33;;;1.33;;
45848;SDS011;31567;54.600;9.842;2023-07-31T13:25:47;2.30;;;1.50;;
45848;SDS011;31567;54.600;9.842;2023-07-31T13:29:26;1.40;;;1.30;;
45848;SDS011;31567;54.600;9.842;2023-07-31T13:33:06;1.95;;;1.83;;
45848;SDS011;31567;54.600;9.842;2023-07-31T13:36:45;2.33;;;1.85;;
45848;SDS011;31567;54.600;9.842;2023-07-31T13:40:25;2.78;;;2.25;;
45848;SDS011;31567;54.600;9.842;2023-07-31T13:44:05;2.63;;;2.42;;
45848;SDS011;31567;54.600;9.842;2023-07-31T13:47:45;2.60;;;2.50;;
45848;SDS011;31567;54.600;9.842;2023-07-31T13:51:24;2.55;;;2.45;;
45848;SDS011;31567;54.600;9.842;2023-07-31T13:55:04;2.55;;;2.35;;
45848;SDS011;31567;54.600;9.842;2023-07-31T13:58:44;2.88;;;2.67;;
45848;SDS011;31567;54.600;9.842;2023-07-31T14:02:24;3.17;;;2.88;;
45848;SDS011;31567;54.600;9.842;2023-07-31T14:06:03;2.60;;;2.40;;
45848;SDS011;31567;54.600;9.842;2023-07-31T14:09:43;2.47;;;2.20;;
45848;SDS011;31567;54.600;9.842;2023-07-31T14:13:23;2.05;;;1.95;;
45848;SDS011;31567;54.600;9.842;2023-07-31T14:17:02;2.65;;;2.00;;
45848;SDS011;31567;54.600;9.842;2023-07-31T14:20:42;2.35;;;2.15;;
45848;SDS011;31567;54.600;9.842;2023-07-31T14:24:22;1.70;;;1.60;;
45848;SDS011;31567;54.600;9.842;2023-07-31T14:28:01;1.98;;;1.88;;
45848;SDS011;31567;54.600;9.842;2023-07-31T14:31:41;2.85;;;1.67;;
45848;SDS011;31567;54.600;9.842;2023-07-31T14:35:20;1.65;;;1.48;;
45848;SDS011;31567;54.600;9.842;2023-07-31T14:39:00;1.70;;;1.60;;
45848;SDS011;31567;54.600;9.842;2023-07-31T14:42:39;1.48;;;1.48;;
45848;SDS011;31567;54.600;9.842;2023-07-31T14:46:19;1.65;;;1.55;;
45848;SDS011;31567;54.600;9.842;2023-07-31T14:49:59;1.98;;;1.30;;
45848;SDS011;31567;54.600;9.842;2023-07-31T14:53:39;1.15;;;1.05;;
45848;SDS011;31567;54.600;9.842;2023-07-31T14:57:19;1.45;;;1.25;;
45848;SDS011;31567;54.600;9.842;2023-07-31T15:00:58;2.17;;;1.15;;
45848;SDS011;31567;54.600;9.842;2023-07-31T15:04:38;0.88;;;0.88;;
45848;SDS011;31567;54.600;9.842;2023-07-31T15:08:17;1.20;;;1.10;;
45848;SDS011;31567;54.600;9.842;2023-07-31T15:11:58;0.95;;;0.95;;
45848;SDS011;31567;54.600;9.842;2023-07-31T15:15:37;0.95;;;0.95;;
45848;SDS011;31567;54.600;9.842;2023-07-31T15:19:17;1.63;;;1.10;;
45848;SDS011;31567;54.600;9.842;2023-07-31T15:22:57;0.80;;;0.80;;
45848;SDS011;31567;54.600;9.842;2023-07-31T15:26:36;0.93;;;0.65;;
45848;SDS011;31567;54.600;9.842;2023-07-31T15:30:16;0.95;;;0.80;;
45848;SDS011;31567;54.600;9.842;2023-07-31T15:33:56;0.70;;;0.70;;
45848;SDS011;31567;54.600;9.842;2023-07-31T15:37:35;1.52;;;0.88;;
45848;SDS011;31567;54.600;9.842;2023-07-31T15:41:15;0.70;;;0.70;;
45848;SDS011;31567;54.600;9.842;2023-07-31T15:44:57;2.58;;;0.90;;
45848;SDS011;31567;54.600;9.842;2023-07-31T15:48:37;0.60;;;0.60;;
45848;SDS011;31567;54.600;9.842;2023-07-31T15:52:17;1.08;;;0.65;;
45848;SDS011;31567;54.600;9.842;2023-07-31T15:55:56;0.75;;;0.65;;
45848;SDS011;31567;54.600;9.842;2023-07-31T15:59:36;1.58;;;0.90;;
45848;SDS011;31567;54.600;9.842;2023-07-31T16:03:15;1.08;;;0.70;;
45848;SDS011;31567;54.600;9.842;2023-07-31T16:06:55;0.70;;;0.70;;
45848;SDS011;31567;54.600;9.842;2023-07-31T16:10:35;1.13;;;0.98;;
45848;SDS011;31567;54.600;9.842;2023-07-31T16:14:14;0.93;;;0.73;;
45848;SDS011;31567;54.600;9.842;2023-07-31T16:17:54;0.80;;;0.80;;
45848;SDS011;31567;54.600;9.842;2023-07-31T16:21:33;0.75;;;0.75;;
45848;SDS011;31567;54.600;9.842;2023-07-31T16:25:13;2.58;;;0.60;;
45848;SDS011;31567;54.600;9.842;2023-07-31T16:28:52;0.73;;;0.70;;
45848;SDS011;31567;54.600;9.842;2023-07-31T16:32:32;0.70;;;0.70;;
45848;SDS011;31567;54.600;9.842;2023-07-31T16:36:11;0.77;;;0.70;;
45848;SDS011;31567;54.600;9.842;2023-07-31T16:39:52;1.70;;;0.82;;
45848;SDS011;31567;54.600;9.842;2023-07-31T16:43:31;0.60;;;0.60;;
45848;SDS011;31567;54.600;9.842;2023-07-31T16:47:11;0.60;;;0.60;;
45848;SDS011;31567;54.600;9.842;2023-07-31T16:50:51;1.15;;;0.80;;
45848;SDS011;31567;54.600;9.842;2023-07-31T16:54:30;0.85;;;0.85;;
45848;SDS011;31567;54.600;9.842;2023-07-31T16:58:11;0.90;;;0.90;;
45848;SDS011;31567;54.600;9.842;2023-07-31T17:01:50;0.80;;;0.80;;
45848;SDS011;31567;54.600;9.842;2023-07-31T17:05:30;1.50;;;0.80;;
45848;SDS011;31567;54.600;9.842;2023-07-31T17:09:10;2.15;;;0.65;;
45848;SDS011;31567;54.600;9.842;2023-07-31T17:12:50;1.85;;;0.80;;
45848;SDS011;31567;54.600;9.842;2023-07-31T17:16:29;2.22;;;0.80;;
45848;SDS011;31567;54.600;9.842;2023-07-31T17:20:12;1.98;;;0.98;;
45848;SDS011;31567;54.600;9.842;2023-07-31T17:23:52;1.95;;;0.80;;
45848;SDS011;31567;54.600;9.842;2023-07-31T17:27:31;0.80;;;0.70;;
45848;SDS011;31567;54.600;9.842;2023-07-31T17:31:11;2.15;;;0.70;;
45848;SDS011;31567;54.600;9.842;2023-07-31T17:34:53;4.35;;;0.90;;
45848;SDS011;31567;54.600;9.842;2023-07-31T17:38:33;1.13;;;0.90;;
45848;SDS011;31567;54.600;9.842;2023-07-31T17:42:12;1.52;;;0.80;;
45848;SDS011;31567;54.600;9.842;2023-07-31T17:45:52;1.00;;;0.82;;
45848;SDS011;31567;54.600;9.842;2023-07-31T17:49:31;2.00;;;1.08;;
45848;SDS011;31567;54.600;9.842;2023-07-31T17:53:11;1.45;;;0.60;;
45848;SDS011;31567;54.600;9.842;2023-07-31T17:56:51;0.50;;;0.50;;
45848;SDS011;31567;54.600;9.842;2023-07-31T18:00:30;0.88;;;0.70;;
45848;SDS011;31567;54.600;9.842;2023-07-31T18:04:10;2.97;;;0.80;;
45848;SDS011;31567;54.600;9.842;2023-07-31T18:07:51;1.33;;;0.80;;
45848;SDS011;31567;54.600;9.842;2023-07-31T18:11:31;2.15;;;0.80;;
45848;SDS011;31567;54.600;9.842;2023-07-31T18:15:11;0.70;;;0.70;;
45848;SDS011;31567;54.600;9.842;2023-07-31T18:18:50;3.45;;;0.90;;
45848;SDS011;31567;54.600;9.842;2023-07-31T18:22:30;2.13;;;1.40;;
45848;SDS011;31567;54.600;9.842;2023-07-31T18:26:09;1.00;;;1.00;;
45848;SDS011;31567;54.600;9.842;2023-07-31T18:29:49;2.80;;;1.27;;
45848;SDS011;31567;54.600;9.842;2023-07-31T18:33:29;1.02;;;0.90;;
45848;SDS011;31567;54.600;9.842;2023-07-31T18:37:09;1.65;;;1.10;;
45848;SDS011;31567;54.600;9.842;2023-07-31T18:40:48;2.50;;;1.10;;
45848;SDS011;31567;54.600;9.842;2023-07-31T18:44:28;1.25;;;1.10;;
45848;SDS011;31567;54.600;9.842;2023-07-31T18:48:07;2.25;;;1.30;;
45848;SDS011;31567;54.600;9.842;2023-07-31T18:51:47;3.58;;;1.40;;
45848;SDS011;31567;54.600;9.842;2023-07-31T18:55:26;1.67;;;0.98;;
45848;SDS011;31567;54.600;9.842;2023-07-31T18:59:06;1.30;;;1.20;;
45848;SDS011;31567;54.600;9.842;2023-07-31T19:02:46;2.58;;;1.30;;
45848;SDS011;31567;54.600;9.842;2023-07-31T19:06:25;1.48;;;1.30;;
45848;SDS011;31567;54.600;9.842;2023-07-31T19:10:05;1.48;;;1.38;;
45848;SDS011;31567;54.600;9.842;2023-07-31T19:13:45;2.15;;;1.50;;
45848;SDS011;31567;54.600;9.842;2023-07-31T19:17:25;4.13;;;1.40;;
45848;SDS011;31567;54.600;9.842;2023-07-31T19:21:04;1.50;;;1.23;;
45848;SDS011;31567;54.600;9.842;2023-07-31T19:24:44;2.92;;;1.70;;
45848;SDS011;31567;54.600;9.842;2023-07-31T19:28:23;2.25;;;2.00;;
45848;SDS011;31567;54.600;9.842;2023-07-31T19:32:03;3.17;;;1.75;;
45848;SDS011;31567;54.600;9.842;2023-07-31T19:35:43;2.72;;;2.00;;
45848;SDS011;31567;54.600;9.842;2023-07-31T19:39:22;2.95;;;2.47;;
45848;SDS011;31567;54.600;9.842;2023-07-31T19:43:02;2.63;;;2.35;;
45848;SDS011;31567;54.600;9.842;2023-07-31T19:46:41;3.10;;;2.40;;
45848;SDS011;31567;54.600;9.842;2023-07-31T19:50:21;8.43;;;3.17;;
45848;SDS011;31567;54.600;9.842;2023-07-31T19:54:01;4.22;;;2.33;;
45848;SDS011;31567;54.600;9.842;2023-07-31T19:57:40;4.65;;;2.10;;
45848;SDS011;31567;54.600;9.842;2023-07-31T20:01:20;2.20;;;2.00;;
45848;SDS011;31567;54.600;9.842;2023-07-31T20:04:59;2.28;;;2.13;;
45848;SDS011;31567;54.600;9.842;2023-07-31T20:08:39;5.50;;;2.67;;
45848;SDS011;31567;54.600;9.842;2023-07-31T20:12:18;3.85;;;2.90;;
45848;SDS011;31567;54.600;9.842;2023-07-31T20:15:59;4.50;;;2.97;;
45848;SDS011;31567;54.600;9.842;2023-07-31T20:19:40;3.22;;;2.92;;
45848;SDS011;31567;54.600;9.842;2023-07-31T20:23:20;4.55;;;3.55;;
45848;SDS011;31567;54.600;9.842;2023-07-31T20:26:59;4.18;;;3.88;;
45848;SDS011;31567;54.600;9.842;2023-07-31T20:30:39;4.18;;;3.70;;
45848;SDS011;31567;54.600;9.842;2023-07-31T20:34:18;5.15;;;3.85;;
45848;SDS011;31567;54.600;9.842;2023-07-31T20:37:58;6.65;;;4.40;;
45848;SDS011;31567;54.600;9.842;2023-07-31T20:41:37;6.40;;;4.32;;
45848;SDS011;31567;54.600;9.842;2023-07-31T20:45:17;8.38;;;3.88;;
45848;SDS011;31567;54.600;9.842;2023-07-31T20:48:56;5.72;;;4.40;;
45848;SDS011;31567;54.600;9.842;2023-07-31T20:52:36;6.57;;;4.43;;
45848;SDS011;31567;54.600;9.842;2023-07-31T20:56:16;5.43;;;4.60;;
45848;SDS011;31567;54.600;9.842;2023-07-31T20:59:55;6.85;;;5.07;;
45848;SDS011;31567;54.600;9.842;2023-07-31T21:03:35;5.60;;;4.95;;
45848;SDS011;31567;54.600;9.842;2023-07-31T21:07:14;6.18;;;5.22;;
45848;SDS011;31567;54.600;9.842;2023-07-31T21:10:54;5.50;;;5.00;;
45848;SDS011;31567;54.600;9.842;2023-07-31T21:14:34;5.63;;;4.50;;
45848;SDS011;31567;54.600;9.842;2023-07-31T21:18:13;5.20;;;4.70;;
45848;SDS011;31567;54.600;9.842;2023-07-31T21:21:56;9.75;;;4.40;;
45848;SDS011;31567;54.600;9.842;2023-07-31T21:25:36;6.65;;;5.05;;
45848;SDS011;31567;54.600;9.842;2023-07-31T21:29:15;7.35;;;5.82;;
45848;SDS011;31567;54.600;9.842;2023-07-31T21:32:58;7.22;;;4.72;;
45848;SDS011;31567;54.600;9.842;2023-07-31T21:36:38;10.95;;;5.07;;
45848;SDS011;31567;54.600;9.842;2023-07-31T21:40:17;8.52;;;4.88;;
45848;SDS011;31567;54.600;9.842;2023-07-31T21:43:57;6.25;;;4.40;;
45848;SDS011;31567;54.600;9.842;2023-07-31T21:47:36;5.35;;;4.60;;
45848;SDS011;31567;54.600;9.842;2023-07-31T21:51:16;5.15;;;4.75;;
45848;SDS011;31567;54.600;9.842;2023-07-31T21:54:55;8.27;;;5.22;;
45848;SDS011;31567;54.600;9.842;2023-07-31T21:58:35;5.60;;;5.03;;
45848;SDS011;31567;54.600;9.842;2023-07-31T22:02:14;10.02;;;5.40;;
45848;SDS011;31567;54.600;9.842;2023-07-31T22:05:54;14.93;;;6.03;;
45848;SDS011;31567;54.600;9.842;2023-07-31T22:09:33;26.58;;;4.60;;
45848;SDS011;31567;54.600;9.842;2023-07-31T22:13:13;13.70;;;2.58;;
45848;SDS011;31567;54.600;9.842;2023-07-31T22:16:53;15.30;;;2.22;;
45848;SDS011;31567;54.600;9.842;2023-07-31T22:20:33;6.38;;;1.30;;
45848;SDS011;31567;54.600;9.842;2023-07-31T22:24:12;2.05;;;1.17;;